National Weather Service Raw Text Product

Displaying AFOS PIL: TAFFOD Received: 2018-01-03 05:37 UTC


046 
FTUS43 KDMX 030537 AAB
TAFFOD
TAF AMD
KFOD 030537Z 0306/0406 32012G19KT P6SM -SN SCT035 BKN045
      TEMPO 0307/0309 3SM -SN BKN030
     FM030900 34015G23KT P6SM SCT050
     FM031200 33016G25KT P6SM SCT150
     FM032300 33008KT P6SM FEW250=